Time;durP1;ratioP1;P1;durP2;ratioP2;P2;SDS_P1;SDS_P2;PMS_P1;PMS_P2;Temp;Humidity;BMP_temperature;BMP_pressure;BME280_temperature;BME280_humidity;BME280_pressure;Samples;Min_cycle;Max_cycle;Signal;HPM_P1;HPM_P2
2022/04/20 00:01:10;;;;;;;3.20;2.17;;;8.10;99.90;;;;;;5096298;28;20054;-79
2022/04/20 00:03:38;;;;;;;3.03;2.10;;;8.10;99.90;;;;;;5077643;28;20371;-79
2022/04/20 00:06:04;;;;;;;3.15;2.00;;;8.10;99.90;;;;;;5070211;28;20119;-78
2022/04/20 00:08:30;;;;;;;2.88;2.13;;;8.00;99.90;;;;;;5096836;28;20079;-79
2022/04/20 00:10:56;;;;;;;2.83;2.22;;;8.00;99.90;;;;;;5091174;28;20544;-79
2022/04/20 00:13:21;;;;;;;2.95;2.15;;;8.00;99.90;;;;;;5099996;28;20040;-79
2022/04/20 00:15:47;;;;;;;3.30;1.88;;;8.00;99.90;;;;;;5050889;28;20127;-79
2022/04/20 00:18:13;;;;;;;2.35;1.85;;;8.00;99.90;;;;;;5062086;28;20442;-80
2022/04/20 00:20:39;;;;;;;3.65;2.35;;;7.90;99.90;;;;;;5084795;28;20055;-74
2022/04/20 00:23:04;;;;;;;2.75;1.65;;;8.00;99.90;;;;;;5087142;28;20035;-74
2022/04/20 00:25:30;;;;;;;2.50;1.70;;;8.00;99.90;;;;;;5082796;28;20040;-74
2022/04/20 00:27:56;;;;;;;4.82;2.33;;;7.90;99.90;;;;;;5069846;28;20044;-79
2022/04/20 00:30:21;;;;;;;4.25;2.10;;;7.90;99.90;;;;;;5089737;28;20427;-79
2022/04/20 00:32:47;;;;;;;3.22;2.00;;;7.90;99.90;;;;;;5088232;28;20134;-79
2022/04/20 00:35:13;;;;;;;3.53;1.73;;;7.80;99.90;;;;;;5083365;28;20055;-79
2022/04/20 00:37:43;;;;;;;2.57;1.90;;;7.90;99.90;;;;;;5089052;28;21097;-74
2022/04/20 00:40:10;;;;;;;3.88;2.25;;;7.90;99.90;;;;;;5088289;28;20626;-73
2022/04/20 00:42:39;;;;;;;4.32;2.40;;;7.80;99.90;;;;;;5089203;28;20115;-72
2022/04/20 00:45:09;;;;;;;4.45;2.03;;;7.80;99.90;;;;;;5088897;28;20032;-73
2022/04/20 00:47:41;;;;;;;2.88;2.10;;;7.80;99.90;;;;;;5089137;28;20062;-72
2022/04/20 00:50:07;;;;;;;3.40;1.98;;;7.80;99.90;;;;;;5088621;28;20055;-73
2022/04/20 00:52:33;;;;;;;2.72;1.70;;;7.70;99.90;;;;;;5089388;28;20060;-73
2022/04/20 00:54:59;;;;;;;3.28;2.20;;;7.70;99.90;;;;;;5088735;28;20097;-73
2022/04/20 00:57:25;;;;;;;2.60;1.80;;;7.70;99.90;;;;;;5089115;28;20055;-73
2022/04/20 00:59:54;;;;;;;4.15;2.20;;;7.70;99.90;;;;;;5093539;28;20131;-73
2022/04/20 01:02:21;;;;;;;3.67;2.03;;;7.70;99.90;;;;;;5071682;28;20114;-73
2022/04/20 01:04:47;;;;;;;2.88;2.10;;;7.70;99.90;;;;;;5097600;28;20036;-78
2022/04/20 01:07:17;;;;;;;2.58;1.95;;;7.60;99.90;;;;;;5092305;28;20359;-78
2022/04/20 01:09:44;;;;;;;3.05;2.10;;;7.60;99.90;;;;;;5081208;28;20040;-78
2022/04/20 01:12:12;;;;;;;2.65;1.67;;;7.60;99.90;;;;;;5077740;28;20044;-79
2022/04/20 01:14:38;;;;;;;3.72;2.22;;;7.60;99.90;;;;;;5084113;28;20464;-78
2022/04/20 01:17:05;;;;;;;3.42;2.13;;;7.50;99.90;;;;;;5102337;28;20040;-78
2022/04/20 01:19:41;;;;;;;3.22;2.10;;;7.50;99.90;;;;;;5082213;28;20463;-79
2022/04/20 01:22:08;;;;;;;3.20;1.92;;;7.50;99.90;;;;;;5082689;28;20079;-78
2022/04/20 01:24:35;;;;;;;3.60;2.45;;;7.50;99.90;;;;;;5077725;28;20047;-78
2022/04/20 01:27:02;;;;;;;3.15;2.17;;;7.60;99.90;;;;;;5089317;28;20367;-80
2022/04/20 01:29:29;;;;;;;3.00;2.00;;;7.50;99.90;;;;;;5088752;28;20505;-79
2022/04/20 01:31:56;;;;;;;2.88;2.17;;;7.50;99.90;;;;;;5101148;28;20048;-79
2022/04/20 01:34:22;;;;;;;;;;;7.50;99.90;;;;;;5094742;28;20040;-78
2022/04/20 01:36:48;;;;;;;2.60;1.90;;;7.50;99.90;;;;;;5079530;28;19946;-79
2022/04/20 01:39:15;;;;;;;3.03;1.90;;;7.40;99.90;;;;;;5068480;28;20127;-78
2022/04/20 01:41:41;;;;;;;3.67;2.10;;;7.40;99.90;;;;;;5072055;28;20087;-78
2022/04/20 01:44:09;;;;;;;2.30;1.65;;;7.40;99.90;;;;;;5088045;28;20032;-78
2022/04/20 01:46:35;;;;;;;4.35;1.83;;;7.30;99.90;;;;;;5105450;28;20095;-78
2022/04/20 01:49:01;;;;;;;3.35;1.75;;;7.30;99.90;;;;;;5089840;28;20043;-79
2022/04/20 01:54:12;;;;;;;4.03;2.22;;;7.20;99.90;;;;;;5105421;28;20052;-78
2022/04/20 01:56:38;;;;;;;3.38;2.00;;;7.20;99.90;;;;;;5082386;28;20044;-79
2022/04/20 01:59:03;;;;;;;3.42;1.98;;;7.20;99.90;;;;;;5067047;28;20101;-78
2022/04/20 02:04:13;;;;;;;3.63;2.10;;;7.20;99.90;;;;;;5078835;28;20051;-79
2022/04/20 02:06:39;;;;;;;4.28;2.58;;;7.10;99.90;;;;;;5078078;28;20387;-74
2022/04/20 02:09:08;;;;;;;3.30;2.10;;;7.10;99.90;;;;;;5081066;28;20036;-74
2022/04/20 02:11:33;;;;;;;2.67;2.00;;;7.10;99.90;;;;;;5079802;28;20395;-73
2022/04/20 02:13:59;;;;;;;3.45;2.17;;;7.00;99.90;;;;;;5084359;28;20089;-74
2022/04/20 02:16:25;;;;;;;3.35;2.20;;;7.00;99.90;;;;;;5083507;28;20432;-74
2022/04/20 02:18:51;;;;;;;3.13;1.90;;;7.00;99.90;;;;;;5086139;28;20040;-73
2022/04/20 02:21:17;;;;;;;3.63;2.30;;;7.00;99.90;;;;;;5065096;28;20050;-73
2022/04/20 02:23:42;;;;;;;3.95;2.47;;;7.00;99.90;;;;;;5067169;28;20100;-74
2022/04/20 02:26:08;;;;;;;3.97;2.50;;;6.90;99.90;;;;;;5086054;28;20052;-72
2022/04/20 02:28:34;;;;;;;3.10;2.30;;;6.90;99.90;;;;;;5068657;28;20048;-72
2022/04/20 02:30:59;;;;;;;3.65;2.38;;;6.90;99.90;;;;;;5082575;28;20644;-72
2022/04/20 02:33:25;;;;;;;3.22;2.35;;;7.00;99.90;;;;;;5086554;28;20056;-72
2022/04/20 02:35:51;;;;;;;2.65;2.10;;;7.00;99.90;;;;;;5085463;28;20083;-72
2022/04/20 02:38:18;;;;;;;4.38;2.75;;;6.90;99.90;;;;;;5067398;28;20055;-72
2022/04/20 02:40:45;;;;;;;3.00;2.42;;;7.00;99.90;;;;;;5086579;28;20032;-72
2022/04/20 02:43:10;;;;;;;;;;;7.00;99.90;;;;;;5067679;28;20485;-73
2022/04/20 02:45:37;;;;;;;4.03;2.33;;;7.00;99.90;;;;;;5087467;28;19924;-73
2022/04/20 02:48:03;;;;;;;;;;;6.90;99.90;;;;;;5083861;28;20106;-73
2022/04/20 02:50:29;;;;;;;3.45;2.28;;;6.90;99.90;;;;;;5081176;28;19924;-73
2022/04/20 02:52:55;;;;;;;3.10;2.58;;;6.90;99.90;;;;;;5084551;28;20123;-73
2022/04/20 02:55:21;;;;;;;3.78;2.67;;;6.90;99.90;;;;;;5068328;28;20127;-73
2022/04/20 02:57:47;;;;;;;2.80;1.88;;;6.90;99.90;;;;;;5083499;28;20131;-73
2022/04/20 03:00:14;;;;;;;2.92;1.98;;;6.80;99.90;;;;;;5085116;28;20078;-73
2022/04/20 03:02:39;;;;;;;;;;;6.80;99.90;;;;;;5068568;28;20032;-73
2022/04/20 03:05:06;;;;;;;3.70;2.20;;;6.70;99.90;;;;;;5096847;28;19943;-74
2022/04/20 03:07:31;;;;;;;2.78;1.88;;;6.70;99.90;;;;;;5109172;28;20055;-73
2022/04/20 03:09:57;;;;;;;4.07;2.22;;;6.70;99.90;;;;;;5070062;28;20589;-73
2022/04/20 03:12:23;;;;;;;3.50;2.40;;;6.70;99.90;;;;;;5079274;28;20032;-73
2022/04/20 03:14:51;;;;;;;3.42;2.15;;;6.70;99.90;;;;;;5072575;28;20154;-73
2022/04/20 03:17:17;;;;;;;3.05;2.70;;;6.70;99.90;;;;;;5092526;28;20051;-73
2022/04/20 03:19:43;;;;;;;3.42;2.40;;;6.70;99.90;;;;;;5083031;28;20050;-73
2022/04/20 03:22:09;;;;;;;4.05;2.60;;;6.70;99.90;;;;;;5099643;28;20125;-72
2022/04/20 03:24:34;;;;;;;4.28;2.92;;;6.70;99.90;;;;;;5084347;28;20127;-72
2022/04/20 03:27:00;;;;;;;4.50;2.65;;;6.70;99.90;;;;;;5086366;28;20066;-73
2022/04/20 03:29:26;;;;;;;3.00;2.40;;;6.70;99.90;;;;;;5102356;28;20121;-72
2022/04/20 03:31:53;;;;;;;4.13;2.53;;;6.70;99.90;;;;;;5093362;28;20035;-73
2022/04/20 03:34:20;;;;;;;2.92;2.13;;;6.60;99.90;;;;;;5107343;28;20490;-73
2022/04/20 03:36:47;;;;;;;3.72;2.50;;;6.60;99.90;;;;;;5104209;28;20143;-72
2022/04/20 03:39:13;;;;;;;3.72;2.80;;;6.60;99.90;;;;;;5105390;28;20039;-72
2022/04/20 03:41:38;;;;;;;3.85;2.67;;;6.60;99.90;;;;;;5091835;28;20070;-74
2022/04/20 03:44:05;;;;;;;2.85;2.28;;;6.50;99.90;;;;;;5108450;28;20154;-73
2022/04/20 03:46:30;;;;;;;3.28;2.20;;;6.50;99.90;;;;;;5081847;28;20040;-73
2022/04/20 03:48:56;;;;;;;3.10;2.33;;;6.50;99.90;;;;;;5102909;28;20393;-74
2022/04/20 03:51:21;;;;;;;3.42;2.35;;;6.50;99.90;;;;;;5089834;28;20138;-73
2022/04/20 03:53:47;;;;;;;5.25;2.80;;;6.40;99.90;;;;;;5090553;28;20119;-73
2022/04/20 03:56:13;;;;;;;4.38;2.70;;;6.40;99.90;;;;;;5092398;28;20051;-73
2022/04/20 03:58:38;;;;;;;3.05;2.50;;;6.40;99.90;;;;;;5106745;28;20368;-72
2022/04/20 04:01:05;;;;;;;3.58;2.65;;;6.40;99.90;;;;;;5063096;28;20363;-73
2022/04/20 04:03:31;;;;;;;3.53;2.50;;;6.40;99.90;;;;;;5057222;28;20067;-73
2022/04/20 04:05:57;;;;;;;3.22;2.22;;;6.40;99.90;;;;;;5090393;28;20082;-73
2022/04/20 04:08:23;;;;;;;3.60;2.55;;;6.30;99.90;;;;;;5085727;28;20051;-73
2022/04/20 04:10:50;;;;;;;3.92;2.33;;;6.30;99.90;;;;;;5040314;28;20126;-73
2022/04/20 04:13:17;;;;;;;3.78;2.78;;;6.30;99.90;;;;;;5094885;28;20546;-72
2022/04/20 04:15:44;;;;;;;6.20;3.17;;;6.30;99.90;;;;;;5087790;28;20052;-73
2022/04/20 04:18:09;;;;;;;;;;;6.30;99.90;;;;;;5091799;28;20055;-72
2022/04/20 04:20:35;;;;;;;4.05;2.90;;;6.30;99.90;;;;;;5068581;28;19919;-73
2022/04/20 04:23:01;;;;;;;3.85;2.50;;;6.30;99.90;;;;;;5086904;28;20043;-73
2022/04/20 04:25:27;;;;;;;3.72;2.58;;;6.30;99.90;;;;;;5097057;28;20807;-74
2022/04/20 04:27:53;;;;;;;3.00;2.20;;;6.30;99.90;;;;;;5107975;28;20096;-73
2022/04/20 04:30:18;;;;;;;4.18;3.00;;;6.30;99.90;;;;;;5087477;28;20467;-73
2022/04/20 04:32:45;;;;;;;5.38;2.90;;;6.30;99.90;;;;;;5089428;28;20577;-73
2022/04/20 04:35:11;;;;;;;4.07;2.60;;;6.30;99.90;;;;;;5090716;28;20119;-73
2022/04/20 04:37:36;;;;;;;4.15;2.80;;;6.30;99.90;;;;;;5088648;28;20329;-72
2022/04/20 04:40:03;;;;;;;3.33;2.78;;;6.30;99.90;;;;;;5088025;28;20055;-73
2022/04/20 04:42:29;;;;;;;4.95;3.38;;;6.30;99.90;;;;;;5085237;28;20491;-73
2022/04/20 04:48:36;;;;;;;4.07;2.77;;;6.30;99.90;;;;;;5076793;28;20114;-73
2022/04/20 04:50:25;;;;;;;3.42;2.53;;;6.20;99.90;;;;;;5086533;28;20071;-73
2022/04/20 04:52:51;;;;;;;5.30;2.80;;;6.30;99.90;;;;;;5066848;28;20054;-72
2022/04/20 04:55:17;;;;;;;4.63;2.60;;;6.30;99.90;;;;;;5100663;28;20351;-72
2022/04/20 04:57:43;;;;;;;3.03;2.40;;;6.30;99.90;;;;;;5091051;28;20492;-79
2022/04/20 05:00:09;;;;;;;2.43;2.00;;;6.30;99.90;;;;;;5103991;28;20668;-80
2022/04/20 05:02:35;;;;;;;2.67;2.08;;;6.20;99.90;;;;;;5071187;28;20294;-78
2022/04/20 05:05:00;;;;;;;3.03;1.90;;;6.30;99.90;;;;;;5089048;28;20044;-78
2022/04/20 05:07:26;;;;;;;3.65;2.50;;;6.30;99.90;;;;;;5072649;28;20607;-79
2022/04/20 05:09:52;;;;;;;4.60;3.20;;;6.30;99.90;;;;;;5088166;28;20498;-79
2022/04/20 05:12:19;;;;;;;4.75;2.65;;;6.30;99.90;;;;;;5087327;28;20047;-79
2022/04/20 05:14:45;;;;;;;4.07;2.78;;;6.30;99.90;;;;;;5089265;28;20055;-79
2022/04/20 05:17:11;;;;;;;5.10;2.75;;;6.40;99.90;;;;;;5089713;28;20051;-79
2022/04/20 05:19:36;;;;;;;5.57;3.40;;;6.40;99.90;;;;;;5096166;28;20446;-81
2022/04/20 05:22:02;;;;;;;3.17;2.55;;;6.40;99.90;;;;;;5074700;28;20065;-79
2022/04/20 05:24:28;;;;;;;3.85;2.78;;;6.50;99.90;;;;;;5067561;28;20101;-79
2022/04/20 05:26:54;;;;;;;4.95;3.08;;;6.50;99.90;;;;;;5054455;28;20074;-79
2022/04/20 05:29:20;;;;;;;4.82;2.95;;;6.50;99.90;;;;;;5082128;28;20044;-79
2022/04/20 05:31:46;;;;;;;4.85;2.53;;;6.60;99.90;;;;;;5066339;28;20057;-77
2022/04/20 05:34:12;;;;;;;3.55;2.30;;;6.70;99.90;;;;;;5083150;28;20055;-80
2022/04/20 05:42:12;;;;;;;4.35;3.20;;;6.90;99.90;;;;;;5088848;28;20067;-80
2022/04/20 05:44:37;;;;;;;4.50;2.90;;;7.10;99.90;;;;;;5071768;28;20459;-80
2022/04/20 05:47:03;;;;;;;4.87;2.73;;;7.20;99.90;;;;;;5090316;28;20621;-81
2022/04/20 05:49:29;;;;;;;4.25;2.70;;;7.30;99.90;;;;;;5108023;28;20123;-79
2022/04/20 05:51:54;;;;;;;4.20;2.67;;;7.30;99.90;;;;;;5112788;28;20054;-79
2022/04/20 05:54:20;;;;;;;4.28;2.92;;;7.30;99.90;;;;;;5090711;28;20118;-80
2022/04/20 05:56:46;;;;;;;4.90;2.97;;;7.30;99.90;;;;;;5087470;28;20122;-81
2022/04/20 05:59:11;;;;;;;3.03;2.53;;;7.40;99.90;;;;;;5068017;28;20036;-79
2022/04/20 06:01:37;;;;;;;5.15;2.67;;;7.40;99.90;;;;;;5070274;28;20036;-79
2022/04/20 06:04:03;;;;;;;4.28;3.13;;;7.70;99.90;;;;;;5083634;28;20127;-79
2022/04/20 06:06:29;;;;;;;6.35;2.90;;;8.20;99.90;;;;;;5085010;28;20076;-79
2022/04/20 06:08:54;;;;;;;4.25;2.95;;;8.70;99.90;;;;;;5083083;28;20074;-80
2022/04/20 06:11:20;;;;;;;3.20;2.30;;;9.20;99.90;;;;;;5083958;28;20065;-79
2022/04/20 06:13:45;;;;;;;3.40;2.40;;;9.60;99.90;;;;;;5075142;28;20783;-79
2022/04/20 06:16:11;;;;;;;3.38;2.80;;;10.00;99.90;;;;;;5073561;28;20544;-79
2022/04/20 06:18:37;;;;;;;4.03;3.10;;;10.20;99.90;;;;;;5073909;28;20551;-79
2022/04/20 06:21:05;;;;;;;5.80;3.28;;;10.20;99.90;;;;;;5075421;28;20059;-79
2022/04/20 06:23:31;;;;;;;4.95;2.70;;;10.30;99.90;;;;;;5091005;28;20127;-79
2022/04/20 06:25:57;;;;;;;3.63;2.60;;;10.60;99.90;;;;;;5075218;28;20040;-79
2022/04/20 06:28:26;;;;;;;2.95;2.63;;;10.60;99.90;;;;;;5091730;28;20391;-79
2022/04/20 06:30:53;;;;;;;4.55;2.35;;;10.80;99.90;;;;;;5091764;28;20483;-79
2022/04/20 06:33:21;;;;;;;4.10;2.67;;;10.90;99.90;;;;;;5075032;28;20044;-79
2022/04/20 06:35:47;;;;;;;3.60;2.50;;;11.00;99.90;;;;;;5091703;28;20040;-78
2022/04/20 06:38:13;;;;;;;3.75;2.22;;;11.20;99.90;;;;;;5074741;28;20132;-78
2022/04/20 06:40:39;;;;;;;4.93;3.00;;;11.30;99.90;;;;;;5091579;28;20115;-79
2022/04/20 06:43:05;;;;;;;3.45;2.65;;;11.40;99.90;;;;;;5084222;28;20134;-80
2022/04/20 06:45:31;;;;;;;4.47;3.03;;;11.40;99.90;;;;;;5095565;28;20071;-79
2022/04/20 06:48:00;;;;;;;4.47;2.72;;;11.40;99.90;;;;;;5112655;28;20090;-80
2022/04/20 06:50:26;;;;;;;4.03;2.60;;;11.30;99.90;;;;;;5113232;28;20039;-79
2022/04/20 06:58:33;;;;;;;2.53;2.30;;;11.70;99.00;;;;;;5102724;28;20059;-79
2022/04/20 07:00:59;;;;;;;4.93;2.85;;;11.60;99.10;;;;;;5091736;28;20370;-79
2022/04/20 07:03:24;;;;;;;3.13;2.42;;;11.70;99.60;;;;;;5091353;28;20435;-79
2022/04/20 07:05:50;;;;;;;4.00;2.47;;;11.80;99.90;;;;;;5091503;28;20145;-79
2022/04/20 07:08:16;;;;;;;4.90;3.50;;;11.90;99.90;;;;;;5090929;28;20051;-78
2022/04/20 07:10:42;;;;;;;3.65;2.60;;;11.90;99.40;;;;;;5074388;28;20083;-79
2022/04/20 07:13:08;;;;;;;2.65;2.28;;;12.00;99.80;;;;;;5091352;28;20051;-79
2022/04/20 07:15:33;;;;;;;3.00;2.70;;;12.30;99.60;;;;;;5074668;28;20043;-79
2022/04/20 07:17:59;;;;;;;3.63;2.60;;;12.30;98.10;;;;;;5076157;28;20039;-78
2022/04/20 07:20:25;;;;;;;3.85;2.70;;;12.40;98.00;;;;;;5093584;28;20046;-78
2022/04/20 07:22:51;;;;;;;3.63;2.38;;;12.60;98.20;;;;;;5059244;28;20119;-79
2022/04/20 07:25:17;;;;;;;3.55;2.17;;;12.80;98.30;;;;;;5076175;28;20509;-80
2022/04/20 07:27:45;;;;;;;2.85;2.25;;;13.00;97.40;;;;;;5093205;28;20123;-79
2022/04/20 07:30:12;;;;;;;4.07;2.65;;;13.10;95.70;;;;;;5090896;28;20040;-79
2022/04/20 07:32:37;;;;;;;3.35;1.83;;;13.10;95.70;;;;;;5090756;28;20117;-79
2022/04/20 07:35:03;;;;;;;4.80;2.17;;;13.30;95.30;;;;;;5073744;28;20043;-80
2022/04/20 07:37:29;;;;;;;;;;;13.40;93.10;;;;;;5101723;28;20090;-79
2022/04/20 07:39:55;;;;;;;2.97;1.92;;;13.40;93.60;;;;;;5093593;28;20358;-79
2022/04/20 07:42:21;;;;;;;2.60;1.85;;;13.40;91.50;;;;;;5110575;28;20051;-79
2022/04/20 07:44:47;;;;;;;;;;;13.40;90.80;;;;;;5111654;28;20039;-79
2022/04/20 07:47:13;;;;;;;2.47;1.65;;;13.60;90.60;;;;;;5093828;28;19976;-79
2022/04/20 07:52:23;;;;;;;2.10;1.50;;;13.80;91.00;;;;;;5089748;28;20132;-80
2022/04/20 07:54:49;;;;;;;3.35;2.10;;;14.10;91.30;;;;;;5073305;28;20059;-79
2022/04/20 07:57:15;;;;;;;3.47;2.20;;;14.00;91.40;;;;;;5073446;28;20080;-79
2022/04/20 07:59:44;;;;;;;4.13;2.10;;;14.00;91.20;;;;;;5073965;28;20478;-79
2022/04/20 08:02:10;;;;;;;2.33;1.63;;;13.90;88.90;;;;;;5073748;28;20112;-79
2022/04/20 08:04:35;;;;;;;5.55;2.05;;;13.80;85.00;;;;;;5091762;28;20044;-79
2022/04/20 08:07:02;;;;;;;2.67;1.50;;;13.90;87.40;;;;;;5092979;28;20048;-80
2022/04/20 08:09:27;;;;;;;3.47;1.63;;;13.80;84.50;;;;;;5076051;28;20357;-80
2022/04/20 08:11:53;;;;;;;2.40;1.52;;;13.70;82.30;;;;;;5076548;28;20044;-79
2022/04/20 08:14:20;;;;;;;6.47;1.92;;;13.70;82.90;;;;;;5058821;28;20139;-79
2022/04/20 08:16:47;;;;;;;3.05;1.70;;;13.80;82.60;;;;;;5073805;28;20413;-79
2022/04/20 08:19:12;;;;;;;2.65;1.80;;;13.90;83.50;;;;;;5090181;28;20044;-79
2022/04/20 08:21:38;;;;;;;4.55;1.70;;;13.90;85.20;;;;;;5073832;28;20090;-78
2022/04/20 08:24:04;;;;;;;4.75;1.60;;;14.10;83.10;;;;;;5073287;28;20429;-79
2022/04/20 08:26:30;;;;;;;;;;;14.30;85.20;;;;;;5091755;28;20112;-78
2022/04/20 08:28:56;;;;;;;2.40;1.50;;;14.40;81.70;;;;;;5092963;28;19920;-79
2022/04/20 08:31:21;;;;;;;2.85;1.60;;;14.40;82.20;;;;;;5093426;28;20036;-78
2022/04/20 08:33:47;;;;;;;3.03;1.13;;;14.50;79.70;;;;;;5075971;28;20039;-79
2022/04/20 08:36:13;;;;;;;3.95;1.60;;;14.60;79.60;;;;;;5092625;28;20131;-78
2022/04/20 08:38:40;;;;;;;;;;;14.60;78.10;;;;;;5074946;28;20044;-79
2022/04/20 08:41:10;;;;;;;1.90;1.23;;;14.80;77.10;;;;;;5072441;28;19965;-80
2022/04/20 08:43:40;;;;;;;2.15;1.30;;;15.00;77.50;;;;;;5110590;28;20130;-79
2022/04/20 08:46:09;;;;;;;2.05;1.27;;;15.20;75.80;;;;;;5110249;28;20039;-78
2022/04/20 08:48:34;;;;;;;2.15;1.25;;;15.20;73.60;;;;;;5109111;28;20051;-79
2022/04/20 08:51:04;;;;;;;2.67;1.30;;;15.30;73.50;;;;;;5093097;28;20044;-79
2022/04/20 08:53:30;;;;;;;2.25;1.23;;;15.40;72.50;;;;;;5092080;28;20051;-79
2022/04/20 08:58:46;;;;;;;2.78;1.25;;;15.30;69.20;;;;;;5111023;28;20059;-74
2022/04/20 09:01:14;;;;;;;2.63;1.40;;;15.30;66.80;;;;;;5109889;28;20047;-73
2022/04/20 09:03:40;;;;;;;2.25;1.30;;;15.40;66.60;;;;;;5109745;28;20482;-73
2022/04/20 09:06:09;;;;;;;2.85;1.48;;;15.40;65.20;;;;;;5092604;28;20077;-74
2022/04/20 09:08:38;;;;;;;1.80;1.27;;;15.40;64.10;;;;;;5109816;28;20131;-73
2022/04/20 09:11:04;;;;;;;1.63;1.10;;;15.40;64.90;;;;;;5109605;28;20183;-73
2022/04/20 09:13:33;;;;;;;3.70;1.50;;;15.70;65.50;;;;;;5109725;28;20035;-73
2022/04/20 09:16:12;;;;;;;3.20;1.38;;;15.50;62.60;;;;;;5110037;28;20043;-78
2022/04/20 09:18:40;;;;;;;1.75;1.33;;;15.50;63.10;;;;;;5111052;28;20458;-79
2022/04/20 09:21:15;;;;;;;2.17;1.20;;;15.30;62.50;;;;;;5111734;28;20039;-80
2022/04/20 09:23:41;;;;;;;2.65;1.52;;;15.30;63.60;;;;;;5113877;28;20132;-79
2022/04/20 09:26:12;;;;;;;2.08;1.30;;;15.20;63.30;;;;;;5113805;28;20188;-78
2022/04/20 09:28:39;;;;;;;3.53;1.27;;;15.40;62.60;;;;;;5104858;28;20044;-78
2022/04/20 09:31:10;;;;;;;2.15;1.10;;;15.60;63.50;;;;;;5093643;28;20411;-79
2022/04/20 09:33:49;;;;;;;1.73;1.10;;;15.70;63.00;;;;;;5094674;28;20040;-79
2022/04/20 09:36:15;;;;;;;1.63;1.00;;;15.90;63.20;;;;;;5093113;28;20581;-79
2022/04/20 09:39:02;;;;;;;1.58;1.05;;;15.90;63.30;;;;;;5094597;28;20534;-79
2022/04/20 09:41:27;;;;;;;2.00;1.10;;;16.20;62.90;;;;;;5093372;28;20138;-79
2022/04/20 09:44:09;;;;;;;2.08;1.23;;;16.40;62.40;;;;;;5093253;28;20696;-79
2022/04/20 09:49:50;;;;;;;3.05;1.20;;;16.10;60.80;;;;;;5093331;28;20060;-79
2022/04/20 09:52:16;;;;;;;1.50;1.20;;;16.10;61.50;;;;;;5093063;28;20480;-73
2022/04/20 09:54:51;;;;;;;3.28;1.48;;;16.20;62.70;;;;;;5076163;28;20056;-73
2022/04/20 09:57:17;;;;;;;1.63;1.20;;;16.20;60.60;;;;;;5092782;28;20048;-74
2022/04/20 10:00:04;;;;;;;2.58;1.15;;;16.50;60.80;;;;;;5075883;28;20069;-73
2022/04/20 10:02:30;;;;;;;2.47;1.23;;;16.50;60.00;;;;;;5075923;28;20082;-74
2022/04/20 10:04:59;;;;;;;2.80;1.42;;;16.50;60.90;;;;;;5092619;28;20503;-74
2022/04/20 10:07:25;;;;;;;3.55;1.20;;;16.50;59.80;;;;;;5092570;28;20406;-73
2022/04/20 10:09:50;;;;;;;2.20;1.15;;;16.60;60.40;;;;;;5092795;28;20052;-73
2022/04/20 10:12:18;;;;;;;1.92;1.20;;;16.50;58.60;;;;;;5092627;28;20500;-73
2022/04/20 10:17:43;;;;;;;2.20;1.10;;;16.70;60.00;;;;;;5092282;28;20058;-73
2022/04/20 10:20:10;;;;;;;1.88;1.17;;;16.80;59.80;;;;;;5092422;28;20078;-73
2022/04/20 10:22:37;;;;;;;2.72;1.58;;;17.00;59.70;;;;;;5075349;28;20040;-74
2022/04/20 10:25:06;;;;;;;2.25;1.23;;;17.10;58.90;;;;;;5092221;28;20054;-75
2022/04/20 10:27:55;;;;;;;2.03;1.38;;;17.30;58.60;;;;;;5093798;28;20059;-74
2022/04/20 10:30:32;;;;;;;2.55;1.20;;;17.30;58.60;;;;;;5092060;28;20052;-73
2022/04/20 10:33:06;;;;;;;1.48;1.10;;;17.30;58.90;;;;;;5074202;28;20493;-74
2022/04/20 10:35:32;;;;;;;2.65;1.30;;;17.30;58.40;;;;;;5092092;28;20119;-73
2022/04/20 10:38:11;;;;;;;1.52;1.10;;;17.30;57.80;;;;;;5074661;28;20059;-73
2022/04/20 10:41:02;;;;;;;2.40;1.20;;;17.50;58.30;;;;;;5091671;28;20104;-74
2022/04/20 10:43:29;;;;;;;2.80;0.90;;;17.70;57.30;;;;;;5092277;28;20039;-74
2022/04/20 10:46:02;;;;;;;1.10;0.90;;;17.60;56.80;;;;;;5075424;28;20043;-75
2022/04/20 10:48:45;;;;;;;2.15;0.88;;;17.60;56.60;;;;;;5075198;28;20066;-74
2022/04/20 10:51:24;;;;;;;1.15;0.90;;;17.70;56.20;;;;;;5092212;28;20123;-74
2022/04/20 10:53:53;;;;;;;2.63;1.20;;;17.60;57.10;;;;;;5091623;28;20115;-75
2022/04/20 10:56:20;;;;;;;2.28;1.00;;;17.40;55.10;;;;;;5074748;28;20115;-73
2022/04/20 10:59:04;;;;;;;1.88;1.00;;;17.50;55.60;;;;;;5074828;28;20122;-74
2022/04/20 11:01:30;;;;;;;1.30;0.90;;;17.70;56.10;;;;;;5091741;28;20041;-75
2022/04/20 11:04:04;;;;;;;2.80;1.02;;;17.70;55.50;;;;;;5074656;28;20504;-75
2022/04/20 11:06:58;;;;;;;1.35;0.88;;;17.80;55.20;;;;;;5091442;28;20509;-73
2022/04/20 11:09:42;;;;;;;1.33;0.95;;;18.00;55.60;;;;;;5091165;28;20162;-73
2022/04/20 11:21:12;;;;;;;2.08;0.80;;;18.10;54.20;;;;;;5091721;28;20044;-74
2022/04/20 11:23:50;;;;;;;1.00;0.75;;;18.20;54.30;;;;;;5091569;28;20028;-75
2022/04/20 11:26:20;;;;;;;2.53;0.70;;;18.10;54.30;;;;;;5091326;28;20056;-75
2022/04/20 11:28:49;;;;;;;1.42;0.80;;;18.30;55.50;;;;;;5074245;28;20581;-75
2022/04/20 11:31:16;;;;;;;1.55;0.70;;;18.40;54.90;;;;;;5074581;28;20052;-75
2022/04/20 11:33:42;;;;;;;1.30;0.90;;;18.70;55.00;;;;;;5091124;28;20505;-76
2022/04/20 11:36:11;;;;;;;4.13;1.20;;;18.60;55.10;;;;;;5091037;28;20458;-75
2022/04/20 11:38:41;;;;;;;1.75;1.10;;;18.70;54.40;;;;;;5092034;28;20056;-74
2022/04/20 11:41:11;;;;;;;2.60;1.00;;;18.70;54.50;;;;;;5070353;28;20048;-74
2022/04/20 11:43:38;;;;;;;1.98;0.90;;;19.00;54.60;;;;;;5086654;28;20051;-74
2022/04/20 11:46:10;;;;;;;2.05;0.95;;;19.10;54.00;;;;;;5067877;28;20056;-81
2022/04/20 11:48:37;;;;;;;1.60;0.90;;;19.00;53.20;;;;;;5055924;28;20120;-80
2022/04/20 11:51:08;;;;;;;1.02;0.70;;;18.60;52.70;;;;;;5071197;28;20047;-81
2022/04/20 11:53:39;;;;;;;1.95;0.90;;;18.80;53.60;;;;;;5074612;28;20117;-81
2022/04/20 11:56:12;;;;;;;1.17;0.60;;;19.00;54.30;;;;;;5085190;28;20051;-81
2022/04/20 11:58:38;;;;;;;1.08;0.65;;;19.30;54.60;;;;;;5082132;28;20068;-81
2022/04/20 12:01:05;;;;;;;;;;;19.30;53.80;;;;;;5088971;28;20051;-81
2022/04/20 12:03:32;;;;;;;1.13;0.88;;;19.40;54.10;;;;;;5087322;28;19917;-80
2022/04/20 12:06:00;;;;;;;1.38;0.80;;;19.20;52.90;;;;;;5083378;28;20366;-80
2022/04/20 12:08:26;;;;;;;1.75;1.10;;;19.50;53.90;;;;;;5072410;28;20072;-80
2022/04/20 12:10:52;;;;;;;1.60;0.80;;;19.20;53.00;;;;;;5053960;28;20119;-80
2022/04/20 12:13:29;;;;;;;2.13;0.90;;;19.20;53.50;;;;;;5092141;28;20053;-80
2022/04/20 12:16:06;;;;;;;1.30;0.80;;;19.10;53.60;;;;;;5091925;28;20048;-79
2022/04/20 12:18:35;;;;;;;;;;;19.10;54.00;;;;;;5079129;28;20055;-81
2022/04/20 12:21:05;;;;;;;1.05;0.88;;;19.20;54.40;;;;;;5064851;28;19916;-80
2022/04/20 12:23:35;;;;;;;1.02;0.80;;;19.20;53.90;;;;;;5088144;28;20043;-81
2022/04/20 12:26:05;;;;;;;1.10;0.70;;;19.30;54.80;;;;;;5085823;28;20040;-79
2022/04/20 12:28:41;;;;;;;1.10;0.70;;;19.30;54.50;;;;;;5079089;28;20486;-80
2022/04/20 12:31:09;;;;;;;1.00;0.80;;;19.20;53.20;;;;;;5083432;28;20036;-80
2022/04/20 12:33:39;;;;;;;1.63;0.90;;;19.30;53.90;;;;;;5081788;28;20737;-81
2022/04/20 12:36:11;;;;;;;2.65;0.80;;;19.40;54.60;;;;;;5075301;28;20037;-81
2022/04/20 12:38:48;;;;;;;1.67;0.70;;;19.30;53.70;;;;;;5071974;28;20143;-80
2022/04/20 12:41:45;;;;;;;1.52;0.75;;;19.40;53.80;;;;;;5075309;28;20044;-82
2022/04/20 12:44:47;;;;;;;1.42;0.73;;;19.40;53.70;;;;;;5099925;28;20043;-81
2022/04/20 12:47:31;;;;;;;1.20;0.95;;;19.30;53.60;;;;;;5105343;28;20048;-81
2022/04/20 12:50:00;;;;;;;0.98;0.55;;;19.40;54.60;;;;;;5104736;28;20051;-81
2022/04/20 12:52:27;;;;;;;0.80;0.70;;;19.30;53.70;;;;;;5097203;28;20048;-81
2022/04/20 12:55:00;;;;;;;1.23;0.90;;;19.40;54.10;;;;;;5091755;28;20043;-81
2022/04/20 13:03:03;;;;;;;1.17;0.80;;;19.40;53.90;;;;;;5091507;28;20486;-81
2022/04/20 13:05:33;;;;;;;1.63;0.98;;;19.30;54.20;;;;;;5088590;28;20062;-81
2022/04/20 13:07:59;;;;;;;1.65;0.90;;;19.30;54.00;;;;;;5074298;28;20509;-82
2022/04/20 13:10:26;;;;;;;1.58;0.85;;;19.30;54.10;;;;;;5074875;28;20054;-81
2022/04/20 13:12:54;;;;;;;2.33;1.25;;;19.30;54.20;;;;;;5091666;28;20040;-81
2022/04/20 13:15:21;;;;;;;1.30;0.90;;;19.10;54.40;;;;;;5074042;28;20042;-81
2022/04/20 13:17:47;;;;;;;1.30;0.88;;;19.10;54.40;;;;;;5073782;28;20141;-80
2022/04/20 13:20:14;;;;;;;1.73;0.90;;;19.00;54.30;;;;;;5087046;28;20100;-81
2022/04/20 13:22:39;;;;;;;1.33;0.90;;;19.30;55.10;;;;;;5070197;28;20087;-82
2022/04/20 13:27:56;;;;;;;4.18;1.90;;;19.30;58.10;;;;;;5077022;28;19923;-83
2022/04/20 13:30:25;;;;;;;4.53;2.20;;;18.90;59.40;;;;;;5075037;28;20489;-83
2022/04/20 13:32:52;;;;;;;3.03;1.95;;;19.10;60.50;;;;;;5074098;28;20044;-82
2022/04/20 13:35:18;;;;;;;2.22;1.80;;;19.00;61.30;;;;;;5090742;28;20435;-81
2022/04/20 13:37:44;;;;;;;4.50;2.45;;;19.00;62.00;;;;;;5073795;28;20513;-82
2022/04/20 13:40:10;;;;;;;;;;;18.80;62.30;;;;;;5074822;28;20052;-82
2022/04/20 13:42:37;;;;;;;4.50;1.75;;;18.70;60.80;;;;;;5092647;28;19916;-83
2022/04/20 13:45:06;;;;;;;3.75;2.03;;;18.90;62.20;;;;;;5073810;28;20040;-81
2022/04/20 13:47:33;;;;;;;3.20;2.10;;;18.70;61.60;;;;;;5072571;28;20202;-81